Time;durP1;ratioP1;P1;durP2;ratioP2;P2;SDS_P1;SDS_P2;PMS_P1;PMS_P2;Temp;Humidity;BMP_temperature;BMP_pressure;BME280_temperature;BME280_humidity;BME280_pressure;Samples;Min_cycle;Max_cycle;Signal;HPM_P1;HPM_P2
2024/01/15 00:02:47;;;;;;;10.30;5.60;;;;;;;3.55;58.64;97277.30;231824;198;153373;-63
2024/01/15 00:07:51;;;;;;;9.00;5.30;;;;;;;3.51;58.67;97274.21;231479;202;137905;-62
2024/01/15 00:12:54;;;;;;;11.60;5.10;;;;;;;3.54;58.57;97261.79;231482;202;139232;-62
2024/01/15 00:17:57;;;;;;;8.20;4.90;;;;;;;3.54;58.45;97250.34;231779;198;154027;-62
2024/01/15 00:23:01;;;;;;;7.20;4.70;;;;;;;3.56;58.38;97244.11;231461;205;138745;-62
2024/01/15 00:28:04;;;;;;;8.90;5.10;;;;;;;3.58;58.29;97230.52;231585;205;138704;-63
2024/01/15 00:33:08;;;;;;;8.80;5.00;;;;;;;3.53;58.00;97228.49;231873;205;153267;-63
2024/01/15 00:38:12;;;;;;;7.20;4.30;;;;;;;3.52;58.04;97232.08;231914;202;137247;-63
2024/01/15 00:43:18;;;;;;;8.40;4.50;;;;;;;3.56;57.83;97224.30;231647;198;138739;-63
2024/01/15 00:48:21;;;;;;;7.10;4.10;;;;;;;3.56;57.74;97213.96;231991;204;153072;-63
2024/01/15 00:53:25;;;;;;;6.60;4.10;;;;;;;3.54;57.72;97203.39;231888;198;137415;-62
2024/01/15 00:58:29;;;;;;;6.60;4.20;;;;;;;3.53;57.61;97203.27;232054;198;137423;-62
2024/01/15 01:03:32;;;;;;;7.50;4.30;;;;;;;3.54;57.53;97203.55;231763;203;153255;-63
2024/01/15 01:08:35;;;;;;;6.10;3.80;;;;;;;3.55;57.38;97195.95;231825;198;137079;-62
2024/01/15 01:13:38;;;;;;;7.30;4.30;;;;;;;3.56;57.29;97192.23;231799;198;138075;-62
2024/01/15 01:18:42;;;;;;;6.90;4.20;;;;;;;3.62;57.17;97186.94;231881;198;153740;-61
2024/01/15 01:23:46;;;;;;;6.70;4.40;;;;;;;3.64;57.05;97188.22;231782;205;137646;-62
2024/01/15 01:28:50;;;;;;;7.00;3.80;;;;;;;3.70;56.91;97177.49;231806;202;137653;-62
2024/01/15 01:33:53;;;;;;;6.60;4.00;;;;;;;3.68;56.80;97168.30;231761;198;153076;-62
2024/01/15 01:38:56;;;;;;;8.60;4.40;;;;;;;3.61;56.83;97160.52;231827;198;138779;-62
2024/01/15 01:43:59;;;;;;;6.60;4.30;;;;;;;3.58;56.82;97154.93;231780;197;137415;-62
2024/01/15 01:49:05;;;;;;;8.30;4.20;;;;;;;3.56;56.87;97144.19;231825;205;153123;-62
2024/01/15 01:54:11;;;;;;;6.80;4.20;;;;;;;3.55;57.02;97141.80;231639;205;137498;-61
2024/01/15 01:59:15;;;;;;;8.20;4.40;;;;;;;3.56;56.83;97128.59;231819;197;137327;-61
2024/01/15 02:04:18;;;;;;;5.90;4.10;;;;;;;3.57;56.97;97117.30;231438;199;153920;-62
2024/01/15 02:09:24;;;;;;;7.70;4.10;;;;;;;3.60;56.64;97108.85;231726;205;137392;-62
2024/01/15 02:14:28;;;;;;;6.50;3.80;;;;;;;3.62;56.20;97106.63;231744;199;138897;-61
2024/01/15 02:19:31;;;;;;;5.70;3.60;;;;;;;3.64;56.13;97099.52;231809;202;153259;-62
2024/01/15 02:24:34;;;;;;;5.20;3.50;;;;;;;3.64;55.83;97094.60;231829;198;138153;-62
2024/01/15 02:29:38;;;;;;;5.80;3.20;;;;;;;3.63;55.65;97086.59;231881;198;137696;-61
2024/01/15 02:34:41;;;;;;;4.60;2.80;;;;;;;3.63;55.44;97089.00;231929;198;153097;-61
2024/01/15 02:39:44;;;;;;;5.30;3.20;;;;;;;3.67;55.30;97082.80;231417;201;138679;-62
2024/01/15 02:44:48;;;;;;;4.80;2.50;;;;;;;3.71;55.19;97069.42;231817;205;137511;-62
2024/01/15 02:49:51;;;;;;;5.00;2.80;;;;;;;3.70;55.33;97058.77;231722;198;153850;-62
2024/01/15 02:54:55;;;;;;;5.60;3.50;;;;;;;3.68;55.28;97057.10;231788;198;138080;-62
2024/01/15 02:59:58;;;;;;;4.50;3.00;;;;;;;3.63;55.37;97046.95;231808;205;137218;-61
2024/01/15 03:05:01;;;;;;;5.20;2.80;;;;;;;3.59;55.47;97046.70;231908;197;154170;-62
2024/01/15 03:10:06;;;;;;;5.10;3.30;;;;;;;3.58;55.51;97041.50;231790;197;137419;-62
2024/01/15 03:15:09;;;;;;;4.20;3.00;;;;;;;3.59;55.55;97033.59;231851;205;137513;-62
2024/01/15 03:20:12;;;;;;;4.60;2.70;;;;;;;3.59;55.51;97025.80;231944;205;153144;-62
2024/01/15 03:25:16;;;;;;;4.90;3.10;;;;;;;3.62;55.50;97028.05;231815;198;137611;-62
2024/01/15 03:30:19;;;;;;;6.80;3.10;;;;;;;3.60;55.39;97020.66;231821;198;137541;-62
2024/01/15 03:35:22;;;;;;;4.10;2.80;;;;;;;3.55;55.38;97023.60;231800;198;153437;-61
2024/01/15 03:40:25;;;;;;;4.90;2.90;;;;;;;3.50;55.41;97017.10;231920;198;137190;-62
2024/01/15 03:45:29;;;;;;;8.50;2.90;;;;;;;3.50;55.39;97009.58;231927;197;138167;-63
2024/01/15 03:50:32;;;;;;;4.70;3.10;;;;;;;3.49;55.31;96999.84;231863;198;153949;-62
2024/01/15 03:55:35;;;;;;;4.30;2.90;;;;;;;3.48;55.11;96993.73;231866;198;138461;-61
2024/01/15 04:00:38;;;;;;;5.60;2.90;;;;;;;3.49;54.76;96985.95;231818;203;137892;-63
2024/01/15 04:05:42;;;;;;;3.20;2.30;;;;;;;3.47;54.78;96980.17;231752;205;153394;-63
2024/01/15 04:10:45;;;;;;;3.40;2.50;;;;;;;3.47;54.31;96972.30;231956;198;137831;-63
2024/01/15 04:15:48;;;;;;;5.30;2.80;;;;;;;3.51;54.07;96962.67;231900;198;137241;-63
2024/01/15 04:20:51;;;;;;;4.80;2.70;;;;;;;3.53;54.04;96951.34;231886;203;153307;-62
2024/01/15 04:25:55;;;;;;;4.40;2.50;;;;;;;3.54;53.63;96948.83;231805;198;137493;-63
2024/01/15 04:30:58;;;;;;;3.70;2.40;;;;;;;3.55;53.39;96949.30;231903;198;137673;-63
2024/01/15 04:36:05;;;;;;;3.00;2.10;;;;;;;3.51;53.04;96947.48;231760;202;154017;-63
2024/01/15 04:41:12;;;;;;;219.70;155.60;;;;;;;3.52;52.95;96938.82;231734;202;138695;-61
2024/01/15 04:46:15;;;;;;;110.40;90.50;;;;;;;3.66;53.11;96936.27;231902;198;138723;-60
2024/01/15 04:51:19;;;;;;;16.20;13.30;;;;;;;3.73;52.77;96933.69;231799;197;153324;-60
2024/01/15 04:56:22;;;;;;;4.90;2.90;;;;;;;3.78;52.26;96927.05;231679;197;138271;-61
2024/01/15 05:01:25;;;;;;;3.50;2.00;;;;;;;3.76;52.35;96930.48;231762;198;137264;-61
2024/01/15 05:06:28;;;;;;;3.40;1.90;;;;;;;3.73;51.89;96931.07;231828;198;153437;-62
2024/01/15 05:11:31;;;;;;;2.20;1.60;;;;;;;3.72;52.19;96932.19;231924;203;139061;-61
2024/01/15 05:16:35;;;;;;;5.90;2.10;;;;;;;3.69;52.32;96936.92;231947;202;137391;-60
2024/01/15 05:21:38;;;;;;;23.10;18.80;;;;;;;3.68;52.15;96942.99;231810;205;153748;-61
2024/01/15 05:26:41;;;;;;;7.20;4.60;;;;;;;3.75;52.97;96940.94;231712;198;138043;-61
2024/01/15 05:31:44;;;;;;;4.40;2.30;;;;;;;3.81;52.32;96939.79;231760;198;137419;-60
2024/01/15 05:36:48;;;;;;;3.90;2.30;;;;;;;3.82;52.31;96938.16;231444;205;154839;-60
2024/01/15 05:41:51;;;;;;;5.40;2.20;;;;;;;3.76;52.25;96936.96;231774;198;141734;-61
2024/01/15 05:46:55;;;;;;;3.10;2.10;;;;;;;3.74;52.43;96925.75;231913;205;137254;-61
2024/01/15 05:51:58;;;;;;;2.70;2.20;;;;;;;3.66;52.51;96921.58;231804;197;155280;-60
2024/01/15 05:57:02;;;;;;;4.60;2.40;;;;;;;3.60;53.09;96922.48;231909;197;137239;-59
2024/01/15 06:02:05;;;;;;;7.70;4.80;;;;;;;3.63;53.63;96916.66;231920;202;137287;-59
2024/01/15 06:07:08;;;;;;;3.60;2.60;;;;;;;3.62;53.29;96918.34;231807;199;153382;-59
2024/01/15 06:12:12;;;;;;;3.80;2.40;;;;;;;3.61;53.18;96918.59;231733;197;137189;-61
2024/01/15 06:17:15;;;;;;;3.80;2.80;;;;;;;3.58;53.41;96920.17;231528;197;139469;-59
2024/01/15 06:22:19;;;;;;;3.50;2.30;;;;;;;3.63;53.56;96920.57;231950;205;154177;-59
2024/01/15 06:27:22;;;;;;;4.40;2.70;;;;;;;3.63;53.28;96918.83;231869;204;137796;-60
2024/01/15 06:32:25;;;;;;;3.50;2.40;;;;;;;3.60;53.32;96915.51;231819;197;137979;-59
2024/01/15 06:37:28;;;;;;;4.40;2.70;;;;;;;3.59;53.56;96916.61;231702;205;154297;-59
2024/01/15 06:42:32;;;;;;;3.90;2.40;;;;;;;3.60;53.41;96919.54;231721;199;138669;-60
2024/01/15 06:47:35;;;;;;;4.80;2.60;;;;;;;3.58;53.63;96920.89;232007;198;137310;-60
2024/01/15 06:52:39;;;;;;;3.70;2.30;;;;;;;3.58;53.82;96922.98;231838;199;153901;-61
2024/01/15 06:57:42;;;;;;;4.90;2.70;;;;;;;3.62;53.88;96922.21;231746;197;138214;-59
2024/01/15 07:02:46;;;;;;;4.60;2.80;;;;;;;3.68;54.02;96924.55;231705;198;138424;-59
2024/01/15 07:07:49;;;;;;;3.70;2.50;;;;;;;3.74;53.98;96930.64;231800;198;152846;-59
2024/01/15 07:12:53;;;;;;;4.60;3.00;;;;;;;3.73;53.98;96925.31;231856;202;138267;-59
2024/01/15 07:17:57;;;;;;;6.20;3.30;;;;;;;3.74;53.79;96931.17;231791;198;136965;-62
2024/01/15 07:23:00;;;;;;;4.40;2.90;;;;;;;3.72;53.81;96932.89;232052;198;153546;-60
2024/01/15 07:28:04;;;;;;;4.60;2.90;;;;;;;3.73;53.87;96934.26;231936;202;139294;-59
2024/01/15 07:33:07;;;;;;;5.50;3.60;;;;;;;3.76;53.80;96940.18;231838;202;138321;-59
2024/01/15 07:38:11;;;;;;;5.40;3.20;;;;;;;3.78;53.65;96948.59;231926;198;153309;-58
2024/01/15 07:43:15;;;;;;;6.40;4.50;;;;;;;3.77;53.61;96956.21;231858;198;137650;-59
2024/01/15 07:48:18;;;;;;;5.60;3.90;;;;;;;3.74;53.71;96961.66;231771;197;138533;-69
2024/01/15 07:53:21;;;;;;;6.10;3.70;;;;;;;3.75;54.00;96960.05;231868;198;153994;-67
2024/01/15 07:58:25;;;;;;;5.40;3.80;;;;;;;3.75;53.70;96963.71;231824;201;137454;-64
2024/01/15 08:03:28;;;;;;;6.70;4.50;;;;;;;3.73;53.84;96962.42;231787;198;137214;-72
2024/01/15 08:08:32;;;;;;;7.70;4.00;;;;;;;3.68;54.05;96962.09;231795;198;153723;-66
2024/01/15 08:13:35;;;;;;;6.80;4.10;;;;;;;3.73;54.26;96968.64;231774;198;137832;-71
2024/01/15 08:18:38;;;;;;;5.90;4.20;;;;;;;3.75;54.36;96972.48;231889;201;139276;-71
2024/01/15 08:23:41;;;;;;;7.70;4.40;;;;;;;3.82;54.52;96972.92;231794;198;153299;-72
2024/01/15 08:28:45;;;;;;;8.00;4.50;;;;;;;3.91;54.36;96971.91;231772;198;138269;-65
2024/01/15 08:33:48;;;;;;;9.60;5.00;;;;;;;4.00;55.47;96971.64;231743;202;138278;-71
2024/01/15 08:38:51;;;;;;;9.70;5.20;;;;;;;4.06;54.50;96961.64;231735;202;153225;-65
2024/01/15 08:43:54;;;;;;;8.70;5.20;;;;;;;4.01;54.31;96968.79;231647;205;138123;-72
2024/01/15 08:48:58;;;;;;;18.70;12.20;;;;;;;3.96;54.55;96979.67;231768;198;137356;-60
2024/01/15 08:54:01;;;;;;;10.90;5.90;;;;;;;4.01;55.48;96981.60;231814;199;152492;-61
2024/01/15 08:59:05;;;;;;;8.40;5.10;;;;;;;4.02;54.44;96991.50;231846;198;137388;-61
2024/01/15 09:04:08;;;;;;;14.90;9.10;;;;;;;3.98;54.37;96986.90;231790;198;138225;-58
2024/01/15 09:09:13;;;;;;;6.80;4.20;;;;;;;3.90;53.99;96997.92;231784;202;154484;-59
2024/01/15 09:14:17;;;;;;;6.70;3.80;;;;;;;3.74;53.66;97007.61;231728;199;141471;-60
2024/01/15 09:19:31;;;;;;;9.20;4.70;;;;;;;3.73;53.52;97012.60;231497;205;137938;-58
2024/01/15 09:24:36;;;;;;;8.10;4.60;;;;;;;3.74;53.46;97022.36;231636;205;153943;-59
2024/01/15 09:29:41;;;;;;;8.70;4.80;;;;;;;3.63;53.12;97012.94;231679;205;137119;-58
2024/01/15 09:34:47;;;;;;;;;;;;;;;3.46;53.51;97009.66;231834;198;137307;-60
2024/01/15 09:39:51;;;;;;;;;;;;;;;3.44;54.01;97005.58;231778;198;153334;-60
2024/01/15 09:44:55;;;;;;;9.90;5.70;;;;;;;3.39;54.46;97009.98;231751;202;138264;-60
2024/01/15 09:49:58;;;;;;;9.30;5.70;;;;;;;3.32;56.02;97009.04;231912;203;138267;-59
2024/01/15 09:55:05;;;;;;;10.80;6.20;;;;;;;3.31;57.11;97001.73;231676;198;153824;-59
2024/01/15 10:00:10;;;;;;;11.00;6.40;;;;;;;3.39;56.92;97000.13;231808;198;138329;-59
2024/01/15 10:05:14;;;;;;;10.20;6.40;;;;;;;3.41;56.90;96998.25;231876;200;138232;-58
2024/01/15 10:10:18;;;;;;;15.20;6.30;;;;;;;3.52;56.01;97007.70;231890;202;153169;-59
2024/01/15 10:15:26;;;;;;;10.60;6.30;;;;;;;3.48;56.02;97013.41;231678;197;137794;-59
2024/01/15 10:20:32;;;;;;;15.90;7.70;;;;;;;3.37;56.92;97018.89;231320;198;137793;-63
2024/01/15 10:25:35;;;;;;;12.50;7.10;;;;;;;3.30;57.84;97020.00;231777;198;153437;-62
2024/01/15 10:30:39;;;;;;;13.10;7.90;;;;;;;3.30;58.00;97010.36;231704;205;140095;-62
2024/01/15 10:35:42;;;;;;;14.10;8.00;;;;;;;3.25;57.68;97006.83;231719;197;138434;-62
2024/01/15 10:40:45;;;;;;;14.50;7.90;;;;;;;3.26;57.77;97002.06;231858;198;153010;-62
2024/01/15 10:45:50;;;;;;;12.40;7.30;;;;;;;3.43;56.83;96982.75;231891;198;138800;-64
2024/01/15 10:50:54;;;;;;;12.60;7.70;;;;;;;3.56;55.52;96992.70;231576;205;136941;-62
2024/01/15 10:55:57;;;;;;;13.70;8.20;;;;;;;3.74;54.74;96982.90;231626;203;154534;-61
2024/01/15 11:01:02;;;;;;;16.90;10.20;;;;;;;3.83;54.31;96978.23;231697;198;137915;-64
2024/01/15 11:06:19;;;;;;;13.50;8.20;;;;;;;3.74;53.19;96974.48;231778;198;137472;-61
2024/01/15 11:11:23;;;;;;;14.10;7.90;;;;;;;3.70;53.07;96980.76;231704;197;153378;-61
2024/01/15 11:16:53;;;;;;;14.00;8.00;;;;;;;3.67;52.90;96973.75;231899;198;137869;-61
2024/01/15 11:21:56;;;;;;;12.60;7.40;;;;;;;3.76;52.87;96974.91;231780;198;137792;-61
2024/01/15 11:27:00;;;;;;;12.50;7.50;;;;;;;3.87;52.56;96974.88;231361;205;152791;-61
2024/01/15 11:32:07;;;;;;;11.80;7.30;;;;;;;3.92;51.83;96984.11;231643;198;137285;-60
2024/01/15 11:37:13;;;;;;;15.20;7.30;;;;;;;3.94;51.80;96971.55;231642;198;137752;-60
2024/01/15 11:42:16;;;;;;;12.20;7.70;;;;;;;3.97;51.00;96974.50;231779;197;153328;-61
2024/01/15 11:47:50;;;;;;;13.20;7.90;;;;;;;3.87;51.18;96972.75;231718;197;138012;-59
2024/01/15 11:53:02;;;;;;;13.80;8.10;;;;;;;3.88;51.63;96966.20;231818;198;137550;-61
2024/01/15 11:58:09;;;;;;;12.40;8.30;;;;;;;3.95;51.50;96964.81;231414;198;155081;-61
2024/01/15 12:03:13;;;;;;;13.40;7.70;;;;;;;3.82;51.35;96968.36;231811;197;138349;-62
2024/01/15 12:08:25;;;;;;;12.80;8.30;;;;;;;3.71;51.32;96972.25;231619;206;137799;-60
2024/01/15 12:13:28;;;;;;;13.50;8.10;;;;;;;3.68;51.82;96964.52;231565;198;153367;-62
2024/01/15 12:18:32;;;;;;;13.00;8.00;;;;;;;3.56;51.55;96958.88;231609;202;137282;-62
2024/01/15 12:23:35;;;;;;;13.80;7.70;;;;;;;3.54;51.56;96963.37;231648;200;138395;-62
2024/01/15 12:28:39;;;;;;;12.20;7.20;;;;;;;3.58;51.51;96954.52;231750;205;153882;-60
2024/01/15 12:33:42;;;;;;;14.60;6.70;;;;;;;3.64;51.92;96960.64;231654;203;137761;-61
2024/01/15 12:38:46;;;;;;;11.00;6.60;;;;;;;3.69;51.12;96967.83;231675;198;138695;-61
2024/01/15 12:43:49;;;;;;;13.20;7.70;;;;;;;3.64;50.67;96961.30;231615;202;153360;-62
2024/01/15 12:48:53;;;;;;;14.20;8.00;;;;;;;3.58;50.89;96971.07;231609;198;138111;-62
2024/01/15 12:53:56;;;;;;;14.60;7.90;;;;;;;3.55;50.78;96972.61;231682;202;137230;-62
2024/01/15 12:58:59;;;;;;;12.90;7.20;;;;;;;3.55;51.04;96974.86;231821;198;154472;-62
2024/01/15 13:04:03;;;;;;;12.50;7.60;;;;;;;3.55;50.96;96973.48;231371;198;138685;-60
2024/01/15 13:09:06;;;;;;;14.60;8.10;;;;;;;3.51;51.04;96975.32;231678;203;137782;-62
2024/01/15 13:14:10;;;;;;;13.30;7.30;;;;;;;3.45;51.23;96978.17;231772;203;154346;-60
2024/01/15 13:19:13;;;;;;;13.60;7.20;;;;;;;3.37;51.32;96974.70;231617;198;137933;-61
2024/01/15 13:24:16;;;;;;;11.20;7.20;;;;;;;3.41;51.50;96976.37;231661;202;138920;-60
2024/01/15 13:29:20;;;;;;;11.80;7.50;;;;;;;3.40;51.28;96964.53;231619;198;153204;-62
2024/01/15 13:34:23;;;;;;;11.00;6.60;;;;;;;3.33;51.51;96966.89;231862;200;138405;-61
2024/01/15 13:39:26;;;;;;;12.60;7.10;;;;;;;3.35;51.29;96964.16;231626;198;139934;-60
2024/01/15 13:44:29;;;;;;;11.50;7.20;;;;;;;3.29;51.33;96959.78;231759;203;155343;-60
2024/01/15 13:49:34;;;;;;;12.00;7.30;;;;;;;3.32;51.66;96962.92;231725;198;137335;-60
2024/01/15 13:54:38;;;;;;;12.70;7.20;;;;;;;3.31;51.22;96962.49;231869;198;138398;-61
2024/01/15 13:59:51;;;;;;;10.90;6.90;;;;;;;3.31;51.53;96963.36;231780;198;154454;-62
2024/01/15 14:04:55;;;;;;;12.70;7.50;;;;;;;3.31;51.37;96962.14;231754;197;138130;-61
2024/01/15 14:09:58;;;;;;;12.50;7.20;;;;;;;3.35;51.35;96962.58;231328;203;138670;-60
2024/01/15 14:15:03;;;;;;;13.40;7.70;;;;;;;3.32;51.29;96962.77;231699;198;153648;-62
2024/01/15 14:20:09;;;;;;;12.00;7.00;;;;;;;3.29;51.20;96966.98;231707;198;138195;-61
2024/01/15 14:25:12;;;;;;;;;;;;;;;3.24;51.38;96967.45;231708;203;137633;-61
2024/01/15 14:30:16;;;;;;;12.00;6.90;;;;;;;3.19;51.37;96969.60;231851;205;154127;-60
2024/01/15 14:35:20;;;;;;;12.10;6.40;;;;;;;3.13;51.34;96963.17;231724;205;137821;-60
2024/01/15 14:40:23;;;;;;;12.50;6.40;;;;;;;3.10;51.44;96965.61;231405;198;138962;-59
2024/01/15 14:45:27;;;;;;;12.80;6.30;;;;;;;3.03;51.30;96961.33;231662;204;153876;-59
2024/01/15 14:50:30;;;;;;;11.90;6.00;;;;;;;3.00;51.48;96963.48;231861;204;137526;-59
2024/01/15 14:55:33;;;;;;;12.80;6.20;;;;;;;2.96;51.46;96972.66;231853;197;139168;-59
2024/01/15 15:00:37;;;;;;;11.10;6.10;;;;;;;2.95;51.31;96970.26;231849;203;154094;-59
2024/01/15 15:05:40;;;;;;;10.40;6.30;;;;;;;2.90;51.47;96970.73;231701;205;138720;-59
2024/01/15 15:10:43;;;;;;;11.90;6.00;;;;;;;2.87;51.78;96969.20;232168;204;138375;-58
2024/01/15 15:15:46;;;;;;;13.10;6.20;;;;;;;2.82;51.93;96971.64;231942;204;153075;-59
2024/01/15 15:20:50;;;;;;;10.40;6.20;;;;;;;2.83;51.97;96974.69;231779;205;140240;-59
2024/01/15 15:25:55;;;;;;;13.50;6.60;;;;;;;2.75;52.33;96975.75;231752;205;137352;-59
2024/01/15 15:30:58;;;;;;;13.30;7.00;;;;;;;2.75;52.39;96971.70;231656;201;154059;-58
2024/01/15 15:36:04;;;;;;;12.30;6.30;;;;;;;2.71;52.46;96976.53;231935;201;137625;-56
2024/01/15 15:41:08;;;;;;;9.90;5.90;;;;;;;2.75;52.70;96982.26;232102;197;137822;-54
2024/01/15 15:46:12;;;;;;;11.90;6.50;;;;;;;2.77;52.69;96982.12;232060;202;153123;-56
2024/01/15 15:51:17;;;;;;;13.60;6.30;;;;;;;2.77;52.89;96974.39;231938;201;137849;-55
2024/01/15 15:56:20;;;;;;;10.90;6.60;;;;;;;2.77;53.01;96979.49;231968;198;138334;-55
2024/01/15 16:01:24;;;;;;;12.10;6.90;;;;;;;2.77;52.95;96978.39;232009;204;154209;-54
2024/01/15 16:06:27;;;;;;;11.40;6.30;;;;;;;2.76;53.20;96982.33;231987;201;138102;-55
2024/01/15 16:11:31;;;;;;;13.50;7.10;;;;;;;2.76;53.34;96987.27;231913;205;137748;-57
2024/01/15 16:16:34;;;;;;;12.50;6.40;;;;;;;2.77;53.45;96980.57;232023;198;153267;-57
2024/01/15 16:21:58;;;;;;;11.00;6.30;;;;;;;2.75;53.36;96987.51;231985;198;137675;-54
2024/01/15 16:27:24;;;;;;;11.40;6.60;;;;;;;2.76;53.47;96991.30;232078;197;137696;-56
2024/01/15 16:32:27;;;;;;;11.10;6.10;;;;;;;2.69;53.60;96998.86;231864;204;153192;-55
2024/01/15 16:37:31;;;;;;;12.40;6.40;;;;;;;2.66;53.89;96999.42;231738;198;137404;-54
2024/01/15 16:42:35;;;;;;;12.10;6.60;;;;;;;2.65;54.04;97006.52;231739;198;137919;-58
2024/01/15 16:47:38;;;;;;;13.60;6.30;;;;;;;2.58;54.45;97008.81;231908;205;152205;-57
2024/01/15 16:52:42;;;;;;;11.90;6.70;;;;;;;2.62;54.70;97009.82;231796;201;137812;-56
2024/01/15 16:57:45;;;;;;;11.60;6.90;;;;;;;2.71;54.80;97017.70;231964;197;137445;-57
2024/01/15 17:02:48;;;;;;;14.00;7.00;;;;;;;2.68;54.76;97027.48;231756;197;153659;-52
2024/01/15 17:07:52;;;;;;;10.80;6.60;;;;;;;2.66;55.04;97020.63;231692;205;138544;-53
2024/01/15 17:12:56;;;;;;;11.80;5.90;;;;;;;2.64;55.18;97017.21;231516;198;137976;-56
2024/01/15 17:17:59;;;;;;;14.30;6.30;;;;;;;2.65;55.40;97018.77;231748;197;154845;-54
2024/01/15 17:23:03;;;;;;;9.90;6.20;;;;;;;2.66;55.41;97027.07;231888;202;137791;-55
2024/01/15 17:28:06;;;;;;;12.40;6.60;;;;;;;2.62;55.48;97026.64;231780;205;137451;-56
2024/01/15 17:33:10;;;;;;;12.60;6.90;;;;;;;2.59;55.59;97022.61;231821;198;154159;-55
2024/01/15 17:38:13;;;;;;;10.70;6.10;;;;;;;2.54;55.87;97022.43;231802;205;137114;-56
2024/01/15 17:43:20;;;;;;;12.10;6.50;;;;;;;2.53;55.95;97023.18;231690;197;137812;-55
2024/01/15 17:48:24;;;;;;;11.40;6.50;;;;;;;2.47;56.06;97026.19;231722;201;153141;-54
2024/01/15 17:53:28;;;;;;;8.30;4.50;;;;;;;2.41;56.44;97033.55;231950;205;137338;-54
2024/01/15 17:58:31;;;;;;;9.50;5.90;;;;;;;2.43;56.68;97031.67;231925;201;138108;-55
2024/01/15 18:03:35;;;;;;;11.30;6.20;;;;;;;2.50;56.84;97038.61;231790;201;153805;-54
2024/01/15 18:08:38;;;;;;;9.90;5.50;;;;;;;2.52;56.88;97044.92;231675;198;137567;-56
2024/01/15 18:13:41;;;;;;;11.90;6.20;;;;;;;2.53;56.88;97049.60;231749;202;138604;-55
2024/01/15 18:18:45;;;;;;;8.50;5.10;;;;;;;2.52;57.02;97052.82;231809;198;154631;-54
2024/01/15 18:23:48;;;;;;;10.40;6.10;;;;;;;2.52;57.19;97053.31;231773;198;139182;-55
2024/01/15 18:28:52;;;;;;;24.30;14.60;;;;;;;2.59;57.54;97052.24;231577;198;138692;-57
2024/01/15 18:33:55;;;;;;;12.90;7.00;;;;;;;2.64;58.42;97059.60;231434;205;153180;-57
2024/01/15 18:39:05;;;;;;;12.30;6.70;;;;;;;2.58;58.99;97064.69;231831;205;137487;-56
2024/01/15 18:44:11;;;;;;;11.80;6.60;;;;;;;2.57;59.31;97078.23;231642;198;137936;-56
2024/01/15 18:49:18;;;;;;;10.80;6.00;;;;;;;2.55;59.88;97073.45;231572;198;155093;-57
2024/01/15 18:54:21;;;;;;;11.50;6.40;;;;;;;2.43;61.86;97083.45;231639;202;137334;-54
2024/01/15 18:59:25;;;;;;;11.30;6.60;;;;;;;2.32;62.72;97082.20;231688;198;137246;-58
2024/01/15 19:04:28;;;;;;;8.20;5.20;;;;;;;2.26;64.06;97079.96;231729;202;153434;-57
2024/01/15 19:09:32;;;;;;;8.30;5.30;;;;;;;2.18;64.85;97075.92;231651;198;138906;-56
2024/01/15 19:14:36;;;;;;;9.90;5.50;;;;;;;2.13;65.06;97076.67;231683;198;137418;-57
2024/01/15 19:19:39;;;;;;;11.30;6.00;;;;;;;2.12;65.10;97074.48;231612;198;153184;-58
2024/01/15 19:24:42;;;;;;;8.80;5.70;;;;;;;2.10;65.11;97076.88;231539;205;138227;-57
2024/01/15 19:29:45;;;;;;;10.70;5.60;;;;;;;2.10;64.97;97076.88;231655;198;137951;-59
2024/01/15 19:34:51;;;;;;;10.30;5.60;;;;;;;2.09;65.12;97073.78;231700;200;153097;-61
2024/01/15 19:39:54;;;;;;;12.20;5.70;;;;;;;2.04;65.17;97077.61;231583;203;137850;-57
2024/01/15 19:44:58;;;;;;;10.60;6.00;;;;;;;1.99;65.10;97088.36;231680;198;137369;-58
2024/01/15 19:50:02;;;;;;;12.50;6.00;;;;;;;1.97;64.83;97086.59;231610;199;153841;-58
2024/01/15 19:55:06;;;;;;;11.40;6.20;;;;;;;2.01;64.67;97090.86;231613;199;137881;-59
2024/01/15 20:00:10;;;;;;;9.40;6.20;;;;;;;2.00;64.28;97081.34;231807;198;138368;-57
2024/01/15 20:05:15;;;;;;;12.40;6.70;;;;;;;1.99;63.98;97088.36;231754;205;153131;-57
2024/01/15 20:10:19;;;;;;;10.10;6.00;;;;;;;1.98;63.89;97094.38;231625;202;139207;-57
2024/01/15 20:15:23;;;;;;;14.40;6.90;;;;;;;1.99;63.60;97096.25;231828;198;137212;-58
2024/01/15 20:20:26;;;;;;;11.40;6.20;;;;;;;1.98;63.23;97097.02;231695;198;153892;-57
2024/01/15 20:25:30;;;;;;;10.00;6.00;;;;;;;1.99;63.12;97103.25;231769;198;138623;-57
2024/01/15 20:30:33;;;;;;;9.50;5.80;;;;;;;1.98;62.71;97111.14;231786;198;137950;-58
2024/01/15 20:35:36;;;;;;;159.90;108.30;;;;;;;2.02;62.60;97123.86;231745;203;153405;-59
2024/01/15 20:40:40;;;;;;;19.80;11.80;;;;;;;2.26;62.42;97119.31;231850;198;137901;-56
2024/01/15 20:45:43;;;;;;;13.30;7.00;;;;;;;2.30;61.13;97119.06;231701;204;138060;-59
2024/01/15 20:50:46;;;;;;;10.50;6.20;;;;;;;2.20;60.72;97125.79;231655;198;153254;-57
2024/01/15 20:55:50;;;;;;;12.00;6.50;;;;;;;2.21;61.23;97133.59;231719;205;137577;-57
2024/01/15 21:00:54;;;;;;;11.90;6.50;;;;;;;2.18;61.86;97128.23;231703;198;139285;-59
2024/01/15 21:05:58;;;;;;;11.30;6.40;;;;;;;2.09;61.91;97139.38;231611;205;153728;-58
2024/01/15 21:11:03;;;;;;;168.70;101.80;;;;;;;2.10;62.38;97153.98;231776;198;138243;-58
2024/01/15 21:16:07;;;;;;;15.30;8.30;;;;;;;2.14;62.99;97158.65;231731;202;138052;-58
2024/01/15 21:21:10;;;;;;;13.30;7.00;;;;;;;2.07;63.16;97163.64;231219;198;153399;-57
2024/01/15 21:26:14;;;;;;;9.80;5.90;;;;;;;1.96;63.43;97169.36;231790;198;137405;-57
2024/01/15 21:31:17;;;;;;;10.80;6.30;;;;;;;1.87;63.79;97173.89;231432;199;138102;-58
2024/01/15 21:36:21;;;;;;;12.20;5.50;;;;;;;1.90;63.46;97183.69;231837;198;153287;-55
2024/01/15 21:41:24;;;;;;;10.90;6.00;;;;;;;1.90;63.15;97196.13;231796;203;137687;-57
2024/01/15 21:46:27;;;;;;;11.40;6.20;;;;;;;1.91;62.78;97194.46;231988;198;137639;-55
2024/01/15 21:51:31;;;;;;;11.00;6.00;;;;;;;1.97;62.62;97195.84;231762;198;153861;-58
2024/01/15 21:56:36;;;;;;;19.90;11.40;;;;;;;2.05;62.36;97194.00;231711;198;139413;-60
2024/01/15 22:01:40;;;;;;;13.10;6.60;;;;;;;2.15;61.75;97196.44;231889;205;137538;-59
2024/01/15 22:06:43;;;;;;;11.90;6.20;;;;;;;2.17;61.27;97207.50;231732;202;154823;-58
2024/01/15 22:11:48;;;;;;;10.70;5.50;;;;;;;2.19;60.78;97201.11;231485;205;138935;-55
2024/01/15 22:16:51;;;;;;;8.60;5.20;;;;;;;2.15;60.55;97212.15;231920;198;138199;-59
2024/01/15 22:21:55;;;;;;;10.90;5.70;;;;;;;2.05;61.11;97213.63;231806;198;153981;-57
2024/01/15 22:26:58;;;;;;;10.10;5.60;;;;;;;2.01;61.55;97227.79;231763;198;138031;-57
2024/01/15 22:32:02;;;;;;;12.80;5.80;;;;;;;2.01;61.54;97237.25;231766;199;138631;-52
2024/01/15 22:37:06;;;;;;;8.60;5.20;;;;;;;1.97;62.25;97239.77;231701;203;154118;-56
2024/01/15 22:42:09;;;;;;;9.10;5.50;;;;;;;1.89;62.78;97248.23;231791;198;142300;-57
2024/01/15 22:47:12;;;;;;;9.90;5.10;;;;;;;1.85;62.93;97252.50;231819;198;137545;-55
2024/01/15 22:52:15;;;;;;;9.10;5.20;;;;;;;1.84;62.74;97255.38;231665;198;152653;-57
2024/01/15 22:57:18;;;;;;;9.30;5.40;;;;;;;1.81;62.88;97254.27;231540;202;138682;-56
2024/01/15 23:02:22;;;;;;;9.80;4.80;;;;;;;1.84;62.75;97250.80;231755;198;137678;-59
2024/01/15 23:07:25;;;;;;;6.90;4.50;;;;;;;1.88;62.54;97256.38;231756;198;154131;-57
2024/01/15 23:12:33;;;;;;;8.70;4.50;;;;;;;1.89;62.98;97262.23;231825;198;138104;-57
2024/01/15 23:17:36;;;;;;;9.50;5.00;;;;;;;1.81;64.63;97279.48;231917;203;138517;-56
2024/01/15 23:22:42;;;;;;;8.40;5.00;;;;;;;1.64;65.57;97290.37;231603;202;153258;-57
2024/01/15 23:27:47;;;;;;;9.70;4.90;;;;;;;1.61;66.66;97296.84;231714;198;137998;-56
2024/01/15 23:32:51;;;;;;;8.20;5.10;;;;;;;1.62;67.44;97304.63;231707;200;137825;-58
2024/01/15 23:37:55;;;;;;;9.40;5.40;;;;;;;1.61;67.64;97305.39;231727;205;153466;-55
2024/01/15 23:42:59;;;;;;;8.30;5.20;;;;;;;1.59;68.08;97306.54;231476;197;139204;-57